createdAt,value
2023-02-26T00:01:55.848Z,24
2023-02-26T00:07:14.306Z,24
2023-02-26T00:12:32.886Z,24
2023-02-26T00:17:51.226Z,24
2023-02-26T00:23:09.703Z,23.9
2023-02-26T00:28:27.709Z,23.9
2023-02-26T00:33:45.980Z,23.9
2023-02-26T00:39:04.497Z,23.9
2023-02-26T00:44:23.023Z,23.9
2023-02-26T00:49:41.222Z,23.9
2023-02-26T00:54:59.697Z,23.9
2023-02-26T01:00:18.503Z,23.9
2023-02-26T01:05:36.977Z,23.9
2023-02-26T01:10:55.200Z,23.9
2023-02-26T01:16:14.190Z,23.9
2023-02-26T01:21:32.975Z,23.9
2023-02-26T01:26:51.177Z,23.9
2023-02-26T01:32:09.880Z,23.9
2023-02-26T01:37:28.548Z,23.9
2023-02-26T01:42:47.044Z,23.9
2023-02-26T01:48:05.335Z,23.9
2023-02-26T01:53:23.535Z,23.9
2023-02-26T01:58:41.512Z,23.9
2023-02-26T02:04:00.344Z,24
2023-02-26T02:09:18.858Z,24
2023-02-26T02:14:36.815Z,24
2023-02-26T02:19:55.034Z,24
2023-02-26T02:25:13.774Z,24
2023-02-26T02:30:32.837Z,24
2023-02-26T02:35:51.388Z,24
2023-02-26T02:41:10.132Z,24
2023-02-26T02:46:29.528Z,24
2023-02-26T02:51:48.705Z,24
2023-02-26T02:57:06.668Z,24
2023-02-26T03:02:25.232Z,24.1
2023-02-26T03:07:43.344Z,24.1
2023-02-26T03:13:01.893Z,24
2023-02-26T03:18:20.151Z,24.1
2023-02-26T03:23:38.669Z,24.1
2023-02-26T03:28:56.862Z,24.1
2023-02-26T03:34:15.363Z,24.1
2023-02-26T03:39:34.159Z,24.1
2023-02-26T03:44:52.346Z,24.1
2023-02-26T03:50:11.161Z,24.1
2023-02-26T03:55:29.694Z,24.1
2023-02-26T04:00:47.872Z,24.1
2023-02-26T04:06:06.099Z,24.1
2023-02-26T04:11:24.653Z,24.1
2023-02-26T04:16:42.754Z,24.1
2023-02-26T04:21:45.176Z,24.1
2023-02-26T04:27:03.698Z,24.1
2023-02-26T04:32:22.333Z,24.1
2023-02-26T04:37:40.972Z,24.1
2023-02-26T04:42:59.318Z,24.1
2023-02-26T04:48:17.511Z,24.2
2023-02-26T04:53:35.709Z,24.2
2023-02-26T04:58:53.962Z,24.2
2023-02-26T05:04:12.550Z,24.2
2023-02-26T05:09:31.116Z,24.2
2023-02-26T05:14:49.619Z,24.2
2023-02-26T05:20:08.125Z,24.2
2023-02-26T05:25:26.907Z,24.2
2023-02-26T05:30:45.187Z,24.2
2023-02-26T05:36:03.973Z,24.2
2023-02-26T05:41:22.753Z,24.2
2023-02-26T05:46:40.887Z,24.2
2023-02-26T05:51:59.353Z,24.2
2023-02-26T05:57:17.609Z,24.2
2023-02-26T06:02:36.297Z,24.2
2023-02-26T06:07:54.609Z,24.2
2023-02-26T06:13:13.373Z,24.2
2023-02-26T06:18:31.896Z,24.2
2023-02-26T06:23:50.454Z,24.2
2023-02-26T06:29:08.644Z,24.3
2023-02-26T06:34:27.419Z,24.3
2023-02-26T06:39:45.991Z,24.3
2023-02-26T06:45:05.890Z,24.3
2023-02-26T06:50:24.102Z,24.3
2023-02-26T06:55:42.617Z,24.3
2023-02-26T07:01:00.959Z,24.3
2023-02-26T07:06:39.137Z,24.3
2023-02-26T07:11:58.326Z,24.3
2023-02-26T07:17:16.812Z,24.3
2023-02-26T07:22:35.641Z,24.3
2023-02-26T07:27:54.173Z,24.4
2023-02-26T07:33:16.643Z,24.4
2023-02-26T07:38:35.159Z,24.4
2023-02-26T07:43:53.325Z,24.4
2023-02-26T07:49:11.540Z,24.3
2023-02-26T07:54:29.528Z,24.3
2023-02-26T07:59:48.273Z,24.4
2023-02-26T08:05:06.516Z,24.4
2023-02-26T08:10:25.104Z,24.4
2023-02-26T08:15:44.317Z,24.4
2023-02-26T08:21:03.807Z,24.4
2023-02-26T08:26:22.339Z,24.4
2023-02-26T08:31:41.699Z,24.4
2023-02-26T08:37:00.227Z,24.4
2023-02-26T08:42:03.189Z,24.4
2023-02-26T08:47:29.348Z,24.4
2023-02-26T08:52:31.936Z,24.5
2023-02-26T08:57:50.153Z,24.5
2023-02-26T09:03:09.197Z,24.5
2023-02-26T09:08:27.725Z,24.4
2023-02-26T09:13:46.269Z,24.4
2023-02-26T09:19:05.008Z,24.4
2023-02-26T09:24:23.769Z,24.4
2023-02-26T09:29:42.786Z,24.5
2023-02-26T09:35:02.749Z,24.5
2023-02-26T09:40:22.006Z,24.5
2023-02-26T09:45:44.522Z,24.5
2023-02-26T09:51:04.684Z,24.5
2023-02-26T09:56:23.646Z,24.6
2023-02-26T10:01:42.793Z,24.6
2023-02-26T10:07:01.383Z,24.7
2023-02-26T10:12:04.048Z,24.9
2023-02-26T10:17:22.835Z,24.9
2023-02-26T10:22:41.345Z,25
2023-02-26T10:27:59.950Z,25
2023-02-26T10:33:17.933Z,25
2023-02-26T10:38:36.116Z,25
2023-02-26T10:43:54.760Z,25
2023-02-26T10:49:13.277Z,25
2023-02-26T10:54:32.072Z,25
2023-02-26T10:59:50.274Z,25
2023-02-26T11:05:08.560Z,25
2023-02-26T11:10:27.321Z,25
2023-02-26T11:15:45.884Z,25
2023-02-26T11:21:04.187Z,25
2023-02-26T11:26:23.236Z,25
2023-02-26T11:31:42.756Z,24.9
2023-02-26T11:37:01.233Z,24.9
2023-02-26T11:42:20.125Z,24.9
2023-02-26T11:47:38.336Z,24.9
2023-02-26T11:52:57.429Z,24.9
2023-02-26T11:58:15.667Z,24.9
2023-02-26T12:03:34.283Z,24.9
2023-02-26T12:08:52.988Z,24.8
2023-02-26T12:14:11.574Z,24.8
2023-02-26T12:19:30.348Z,24.8
2023-02-26T12:24:48.949Z,24.8
2023-02-26T12:30:07.493Z,24.8
2023-02-26T12:35:26.186Z,24.8
2023-02-26T12:40:45.488Z,24.8
2023-02-26T12:46:03.735Z,24.8
2023-02-26T12:51:22.227Z,24.8
2023-02-26T12:56:40.472Z,24.7
2023-02-26T13:02:02.090Z,24.7
2023-02-26T13:07:21.505Z,24.7
2023-02-26T13:12:39.769Z,24.7
2023-02-26T13:17:57.982Z,24.7
2023-02-26T13:23:16.208Z,24.7
2023-02-26T13:28:34.767Z,24.7
2023-02-26T13:33:53.288Z,24.7
2023-02-26T13:39:11.565Z,24.7
2023-02-26T13:44:30.088Z,24.7
2023-02-26T13:49:48.022Z,24.7
2023-02-26T13:55:06.488Z,24.7
2023-02-26T14:00:25.007Z,24.6
2023-02-26T14:05:43.471Z,24.7
2023-02-26T14:11:01.970Z,24.6
2023-02-26T14:16:20.373Z,24.6
2023-02-26T14:21:38.771Z,24.6
2023-02-26T14:26:57.272Z,24.6
2023-02-26T14:32:15.869Z,24.6
2023-02-26T14:37:34.721Z,24.6
2023-02-26T14:42:52.647Z,24.6
2023-02-26T14:48:10.928Z,24.6
2023-02-26T14:53:29.133Z,24.6
2023-02-26T14:58:48.156Z,24.6
2023-02-26T15:04:06.774Z,24.5
2023-02-26T15:09:24.685Z,24.5
2023-02-26T15:14:43.212Z,24.5
2023-02-26T15:20:01.876Z,24.5
2023-02-26T15:25:20.570Z,24.5
2023-02-26T15:30:38.961Z,24.5
2023-02-26T15:35:57.695Z,24.5
2023-02-26T15:41:16.162Z,24.5
2023-02-26T15:46:34.699Z,24.5
2023-02-26T15:51:53.425Z,24.5
2023-02-26T15:57:11.602Z,24.5
2023-02-26T16:02:33.471Z,24.5
2023-02-26T16:07:51.524Z,24.5
2023-02-26T16:13:09.938Z,24.4
2023-02-26T16:18:28.608Z,24.4
2023-02-26T16:23:47.107Z,24.4
2023-02-26T16:29:05.049Z,24.4
2023-02-26T16:34:23.380Z,24.4
2023-02-26T16:39:41.808Z,24.4
2023-02-26T16:45:00.323Z,24.4
2023-02-26T16:50:18.269Z,24.4
2023-02-26T16:55:36.499Z,24.4
2023-02-26T17:00:54.507Z,24.4
2023-02-26T17:06:12.933Z,24.4
2023-02-26T17:11:31.821Z,24.4
2023-02-26T17:16:51.938Z,24.4
2023-02-26T17:22:10.379Z,24.4
2023-02-26T17:27:29.106Z,24.4
2023-02-26T17:32:48.151Z,24.4
2023-02-26T17:38:06.153Z,24.4
2023-02-26T17:43:24.125Z,24.4
2023-02-26T17:48:42.129Z,24.4
2023-02-26T17:54:00.458Z,24.4
2023-02-26T17:59:18.729Z,24.4
2023-02-26T18:04:37.257Z,24.4
2023-02-26T18:09:40.344Z,24.4
2023-02-26T18:14:58.876Z,24.4
2023-02-26T18:20:17.469Z,24.4
2023-02-26T18:25:36.313Z,24.4
2023-02-26T18:30:55.134Z,24.4
2023-02-26T18:36:14.053Z,24.4
2023-02-26T18:41:32.519Z,24.4
2023-02-26T18:46:51.400Z,24.4
2023-02-26T18:52:09.963Z,24.5
2023-02-26T18:57:28.470Z,24.5
2023-02-26T19:02:47.127Z,24.6
2023-02-26T19:08:05.834Z,24.6
2023-02-26T19:13:24.389Z,24.6
2023-02-26T19:18:42.802Z,24.6
2023-02-26T19:24:00.949Z,24.6
2023-02-26T19:29:19.704Z,24.6
2023-02-26T19:34:38.319Z,24.5
2023-02-26T19:39:57.947Z,24.5
2023-02-26T19:45:16.895Z,24.5
2023-02-26T19:50:35.460Z,24.5
2023-02-26T19:55:53.406Z,24.5
2023-02-26T20:01:11.996Z,24.5
2023-02-26T20:06:30.526Z,24.5
2023-02-26T20:11:48.995Z,24.5
2023-02-26T20:17:07.499Z,24.5
2023-02-26T20:22:26.287Z,24.5
2023-02-26T20:27:47.453Z,24.5
2023-02-26T20:33:06.557Z,24.5
2023-02-26T20:38:25.149Z,24.5
2023-02-26T20:43:43.570Z,24.5
2023-02-26T20:49:02.013Z,24.5
2023-02-26T20:54:20.618Z,24.5
2023-02-26T20:59:39.205Z,24.5
2023-02-26T21:04:57.861Z,24.5
2023-02-26T21:10:16.762Z,24.5
2023-02-26T21:15:35.003Z,24.5
2023-02-26T21:20:56.057Z,24.5
2023-02-26T21:26:14.315Z,24.5
2023-02-26T21:31:33.418Z,24.5
2023-02-26T21:36:51.406Z,24.4
2023-02-26T21:42:09.855Z,24.4
2023-02-26T21:47:28.323Z,24.4
2023-02-26T21:52:46.555Z,24.4
2023-02-26T21:58:04.749Z,24.4
2023-02-26T22:03:23.500Z,24.4
2023-02-26T22:08:41.758Z,24.4
2023-02-26T22:14:00.843Z,24.4
2023-02-26T22:19:03.416Z,24.4
2023-02-26T22:24:21.602Z,24.4
2023-02-26T22:29:40.170Z,24.4
2023-02-26T22:34:58.129Z,24.4
2023-02-26T22:40:16.339Z,24.4
2023-02-26T22:45:34.926Z,24.4
2023-02-26T22:50:53.124Z,24.4
2023-02-26T22:56:11.610Z,24.4
2023-02-26T23:01:30.100Z,24.4
2023-02-26T23:06:48.767Z,24.4
2023-02-26T23:12:06.968Z,24.4
2023-02-26T23:17:25.799Z,24.4
2023-02-26T23:22:44.215Z,24.3
2023-02-26T23:28:02.685Z,24.4
2023-02-26T23:33:21.211Z,24.4
2023-02-26T23:38:39.120Z,24.4
2023-02-26T23:43:57.929Z,24.4
2023-02-26T23:49:16.167Z,24.4
2023-02-26T23:54:34.112Z,24.4
2023-02-26T23:59:52.661Z,24.4
